createdAt,value
2022-10-07T00:01:58.596Z,99.90
2022-10-07T00:04:25.411Z,99.90
2022-10-07T00:06:52.179Z,99.90
2022-10-07T00:09:18.873Z,99.90
2022-10-07T00:11:45.642Z,99.90
2022-10-07T00:14:12.494Z,99.90
2022-10-07T00:16:41.021Z,99.90
2022-10-07T00:19:10.615Z,99.90
2022-10-07T00:21:38.113Z,99.90
2022-10-07T00:24:05.651Z,99.90
2022-10-07T00:26:33.418Z,99.90
2022-10-07T00:29:00.830Z,99.90
2022-10-07T00:31:29.254Z,99.90
2022-10-07T00:33:56.445Z,99.90
2022-10-07T00:36:27.452Z,99.90
2022-10-07T00:38:58.127Z,99.90
2022-10-07T00:41:26.443Z,99.90
2022-10-07T00:43:53.053Z,99.90
2022-10-07T00:46:19.658Z,99.90
2022-10-07T00:48:46.835Z,99.90
2022-10-07T00:51:17.116Z,99.90
2022-10-07T00:53:44.820Z,99.90
2022-10-07T00:56:12.001Z,99.90
2022-10-07T00:58:39.532Z,99.90
2022-10-07T01:01:06.218Z,99.90
2022-10-07T01:03:34.732Z,99.90
2022-10-07T01:06:02.296Z,99.90
2022-10-07T01:08:29.064Z,99.90
2022-10-07T01:11:13.928Z,99.90
2022-10-07T01:13:56.346Z,99.90
2022-10-07T01:16:29.670Z,99.90
2022-10-07T01:19:15.251Z,99.90
2022-10-07T01:21:54.102Z,99.90
2022-10-07T01:24:29.140Z,99.90
2022-10-07T01:27:07.849Z,99.90
2022-10-07T01:29:43.891Z,99.90
2022-10-07T01:32:17.355Z,99.90
2022-10-07T01:34:45.620Z,99.90
2022-10-07T01:37:15.052Z,99.90
2022-10-07T01:39:49.937Z,99.90
2022-10-07T01:42:17.083Z,99.90
2022-10-07T01:44:44.758Z,99.90
2022-10-07T01:47:11.341Z,99.90
2022-10-07T01:49:38.090Z,99.90
2022-10-07T01:52:08.049Z,99.90
2022-10-07T01:54:51.288Z,99.90
2022-10-07T01:57:25.828Z,99.90
2022-10-07T02:00:07.468Z,99.90
2022-10-07T02:02:34.257Z,99.90
2022-10-07T02:05:06.691Z,99.90
2022-10-07T02:07:48.435Z,99.90
2022-10-07T02:10:24.408Z,99.90
2022-10-07T02:12:51.010Z,99.90
2022-10-07T02:15:21.714Z,99.90
2022-10-07T02:17:56.203Z,99.90
2022-10-07T02:20:25.320Z,99.90
2022-10-07T02:22:53.408Z,99.90
2022-10-07T02:25:21.041Z,99.90
2022-10-07T02:27:49.823Z,99.90
2022-10-07T02:30:18.559Z,99.90
2022-10-07T02:32:47.650Z,99.90
2022-10-07T02:35:34.482Z,99.90
2022-10-07T02:38:03.919Z,99.90
2022-10-07T02:40:39.204Z,99.90
2022-10-07T02:43:28.915Z,99.90
2022-10-07T02:45:59.654Z,99.90
2022-10-07T02:48:28.265Z,99.90
2022-10-07T02:50:58.291Z,99.90
2022-10-07T02:53:26.956Z,99.90
2022-10-07T02:55:54.349Z,99.90
2022-10-07T02:58:21.350Z,99.90
2022-10-07T03:00:52.896Z,99.90
2022-10-07T03:03:19.574Z,99.90
2022-10-07T03:05:48.288Z,99.90
2022-10-07T03:08:15.094Z,99.90
2022-10-07T03:10:41.832Z,99.90
2022-10-07T03:13:08.684Z,99.90
2022-10-07T03:15:41.860Z,99.90
2022-10-07T03:18:26.096Z,99.90
2022-10-07T03:20:55.238Z,99.90
2022-10-07T03:23:25.038Z,99.90
2022-10-07T03:25:52.125Z,99.90
2022-10-07T03:28:22.703Z,99.90
2022-10-07T03:30:50.302Z,99.90
2022-10-07T03:33:17.827Z,99.90
2022-10-07T03:35:44.820Z,99.90
2022-10-07T03:38:12.100Z,99.90
2022-10-07T03:40:38.864Z,99.90
2022-10-07T03:43:05.872Z,99.90
2022-10-07T03:45:32.503Z,99.90
2022-10-07T03:47:59.562Z,99.90
2022-10-07T03:50:26.832Z,99.90
2022-10-07T03:52:53.425Z,99.90
2022-10-07T03:55:20.021Z,99.90
2022-10-07T03:57:59.741Z,99.90
2022-10-07T04:00:26.901Z,99.90
2022-10-07T04:02:53.747Z,99.90
2022-10-07T04:05:20.685Z,99.90
2022-10-07T04:07:48.335Z,99.90
2022-10-07T04:10:16.837Z,99.90
2022-10-07T04:12:43.935Z,99.90
2022-10-07T04:15:13.669Z,99.90
2022-10-07T04:17:40.803Z,99.90
2022-10-07T04:20:07.867Z,99.90
2022-10-07T04:22:34.528Z,99.90
2022-10-07T04:25:19.942Z,99.90
2022-10-07T04:27:51.850Z,99.90
2022-10-07T04:30:19.511Z,99.90
2022-10-07T04:32:46.161Z,99.90
2022-10-07T04:35:12.713Z,99.90
2022-10-07T04:37:39.291Z,99.90
2022-10-07T04:40:06.085Z,99.90
2022-10-07T04:42:51.436Z,99.90
2022-10-07T04:45:18.060Z,99.90
2022-10-07T04:47:45.502Z,99.90
2022-10-07T04:50:12.622Z,99.90
2022-10-07T04:52:42.741Z,99.90
2022-10-07T04:55:14.241Z,99.90
2022-10-07T04:57:41.358Z,99.90
2022-10-07T05:00:09.134Z,99.90
2022-10-07T05:02:36.256Z,99.90
2022-10-07T05:05:03.712Z,99.90
2022-10-07T05:07:31.904Z,99.90
2022-10-07T05:09:58.853Z,99.90
2022-10-07T05:12:26.629Z,99.90
2022-10-07T05:14:53.264Z,99.90
2022-10-07T05:17:20.333Z,99.90
2022-10-07T05:19:47.168Z,99.90
2022-10-07T05:22:13.735Z,99.90
2022-10-07T05:24:40.294Z,99.90
2022-10-07T05:27:06.856Z,99.90
2022-10-07T05:29:33.939Z,99.90
2022-10-07T05:32:04.719Z,99.90
2022-10-07T05:34:32.684Z,99.90
2022-10-07T05:36:59.413Z,99.90
2022-10-07T05:39:26.025Z,99.90
2022-10-07T05:41:52.671Z,99.90
2022-10-07T05:44:19.232Z,99.90
2022-10-07T05:46:45.833Z,99.90
2022-10-07T05:49:12.543Z,99.90
2022-10-07T05:51:39.185Z,99.90
2022-10-07T05:54:05.768Z,99.90
2022-10-07T05:56:32.485Z,99.90
2022-10-07T05:58:59.097Z,99.90
2022-10-07T06:01:27.640Z,99.90
2022-10-07T06:03:57.352Z,99.90
2022-10-07T06:06:25.026Z,99.90
2022-10-07T06:08:52.509Z,99.90
2022-10-07T06:11:37.795Z,99.90
2022-10-07T06:14:05.130Z,99.90
2022-10-07T06:16:31.944Z,99.90
2022-10-07T06:18:59.807Z,99.90
2022-10-07T06:21:29.560Z,99.90
2022-10-07T06:23:56.989Z,99.90
2022-10-07T06:26:23.826Z,99.90
2022-10-07T06:28:50.673Z,99.90
2022-10-07T06:31:22.417Z,99.90
2022-10-07T06:33:49.731Z,99.90
2022-10-07T06:36:16.345Z,99.90
2022-10-07T06:38:46.591Z,99.90
2022-10-07T06:41:13.276Z,99.90
2022-10-07T06:43:39.971Z,99.90
2022-10-07T06:46:07.921Z,99.90
2022-10-07T06:48:35.152Z,99.90
2022-10-07T06:51:06.010Z,99.90
2022-10-07T06:53:32.776Z,99.90
2022-10-07T06:56:03.018Z,99.90
2022-10-07T06:58:30.004Z,99.90
2022-10-07T07:00:57.610Z,99.90
2022-10-07T07:03:24.508Z,99.90
2022-10-07T07:05:54.564Z,99.90
2022-10-07T07:08:27.707Z,99.90
2022-10-07T07:10:54.705Z,99.90
2022-10-07T07:13:21.420Z,99.90
2022-10-07T07:15:54.812Z,99.90
2022-10-07T07:18:21.482Z,99.90
2022-10-07T07:20:48.043Z,99.90
2022-10-07T07:23:14.602Z,99.90
2022-10-07T07:25:45.988Z,99.90
2022-10-07T07:28:14.309Z,99.90
2022-10-07T07:30:41.371Z,99.90
2022-10-07T07:33:08.378Z,99.90
2022-10-07T07:35:37.447Z,99.90
2022-10-07T07:38:04.170Z,99.90
2022-10-07T07:40:30.798Z,99.90
2022-10-07T07:42:57.370Z,99.90
2022-10-07T07:45:24.443Z,99.90
2022-10-07T07:47:51.187Z,99.90
2022-10-07T07:50:19.103Z,99.90
2022-10-07T07:52:45.723Z,99.90
2022-10-07T07:55:12.323Z,99.90
2022-10-07T07:57:38.895Z,99.90
2022-10-07T08:00:05.815Z,99.90
2022-10-07T08:02:33.103Z,99.90
2022-10-07T08:04:59.779Z,99.90
2022-10-07T08:07:26.846Z,99.90
2022-10-07T08:09:53.688Z,99.90
2022-10-07T08:12:22.149Z,99.90
2022-10-07T08:14:48.825Z,99.90
2022-10-07T08:17:15.387Z,99.90
2022-10-07T08:19:41.971Z,99.90
2022-10-07T08:22:09.417Z,99.90
2022-10-07T08:24:36.189Z,99.90
2022-10-07T08:27:02.796Z,99.90
2022-10-07T08:29:30.260Z,99.90
2022-10-07T08:31:56.894Z,99.90
2022-10-07T08:34:23.559Z,99.90
2022-10-07T08:36:51.828Z,99.90
2022-10-07T08:39:18.424Z,99.90
2022-10-07T08:42:03.072Z,99.90
2022-10-07T08:44:36.039Z,99.90
2022-10-07T08:47:06.511Z,99.90
2022-10-07T08:49:54.454Z,99.90
2022-10-07T08:52:26.356Z,99.90
2022-10-07T08:54:53.034Z,99.90
2022-10-07T08:57:25.057Z,99.90
2022-10-07T08:59:55.012Z,99.90
2022-10-07T09:02:21.678Z,99.90
2022-10-07T09:05:00.558Z,99.90
2022-10-07T09:07:32.424Z,99.90
2022-10-07T09:10:01.634Z,99.90
2022-10-07T09:12:34.288Z,99.90
2022-10-07T09:15:02.090Z,99.90
2022-10-07T09:17:35.395Z,99.90
2022-10-07T09:20:04.440Z,99.90
2022-10-07T09:22:32.501Z,99.90
2022-10-07T09:25:09.032Z,99.90
2022-10-07T09:27:38.094Z,99.90
2022-10-07T09:30:05.899Z,99.90
2022-10-07T09:32:33.079Z,99.90
2022-10-07T09:35:03.218Z,99.90
2022-10-07T09:37:29.926Z,99.90
2022-10-07T09:40:16.464Z,99.90
2022-10-07T09:42:43.868Z,99.90
2022-10-07T09:45:22.511Z,99.90
2022-10-07T09:47:53.313Z,99.90
2022-10-07T09:50:52.588Z,99.90
2022-10-07T09:53:23.856Z,99.90
2022-10-07T09:55:52.448Z,99.90
2022-10-07T09:58:30.494Z,99.90
2022-10-07T10:00:58.164Z,99.90
2022-10-07T10:03:32.350Z,99.90
2022-10-07T10:06:00.733Z,99.90
2022-10-07T10:08:30.524Z,99.90
2022-10-07T10:10:58.387Z,99.90
2022-10-07T10:13:45.232Z,99.90
2022-10-07T10:16:24.369Z,99.90
2022-10-07T10:18:54.931Z,99.90
2022-10-07T10:21:36.817Z,99.90
2022-10-07T10:24:06.216Z,99.90
2022-10-07T10:26:39.026Z,99.90
2022-10-07T10:29:20.088Z,99.90
2022-10-07T10:31:49.709Z,99.90
2022-10-07T10:34:35.279Z,99.90
2022-10-07T10:37:20.354Z,99.90
2022-10-07T10:40:07.360Z,99.90
2022-10-07T10:42:52.801Z,99.90
2022-10-07T10:45:25.509Z,99.90
2022-10-07T10:48:11.280Z,99.90
2022-10-07T10:50:52.335Z,99.90
2022-10-07T10:53:21.893Z,99.90
2022-10-07T10:55:48.656Z,99.90
2022-10-07T10:58:15.244Z,99.90
2022-10-07T11:00:50.300Z,99.90
2022-10-07T11:03:26.126Z,99.90
2022-10-07T11:05:54.971Z,99.90
2022-10-07T11:08:37.646Z,99.90
2022-10-07T11:11:06.556Z,99.90
2022-10-07T11:13:40.943Z,99.90
2022-10-07T11:16:13.751Z,99.90
2022-10-07T11:18:42.079Z,99.90
2022-10-07T11:21:12.515Z,99.90
2022-10-07T11:23:57.535Z,99.90
2022-10-07T11:26:41.766Z,99.90
2022-10-07T11:29:31.281Z,99.90
2022-10-07T11:32:03.155Z,99.90
2022-10-07T11:34:40.480Z,99.30
2022-10-07T11:37:11.135Z,98.90
2022-10-07T11:39:38.364Z,99.20
2022-10-07T11:42:13.431Z,99.60
2022-10-07T11:44:54.092Z,97.50
2022-10-07T11:47:23.535Z,97.00
2022-10-07T11:49:57.736Z,96.00
2022-10-07T11:52:29.604Z,95.00
2022-10-07T11:55:07.278Z,93.80
2022-10-07T11:57:35.984Z,92.30
2022-10-07T12:00:08.211Z,91.30
2022-10-07T12:02:39.605Z,89.30
2022-10-07T12:05:08.469Z,82.40
2022-10-07T12:07:37.439Z,81.80
2022-10-07T12:10:04.018Z,79.60
2022-10-07T12:12:43.241Z,77.80
2022-10-07T12:15:28.192Z,76.10
2022-10-07T12:18:06.944Z,74.20
2022-10-07T12:20:34.561Z,72.80
2022-10-07T12:23:22.661Z,70.00
2022-10-07T12:25:53.391Z,71.90
2022-10-07T12:28:34.428Z,68.40
2022-10-07T12:31:02.319Z,67.20
2022-10-07T12:33:33.471Z,66.80
2022-10-07T12:36:21.255Z,65.40
2022-10-07T12:39:00.030Z,67.00
2022-10-07T12:41:27.797Z,68.10
2022-10-07T12:44:06.484Z,67.00
2022-10-07T12:46:51.047Z,69.50
2022-10-07T12:49:29.600Z,67.60
2022-10-07T12:51:58.736Z,65.90
2022-10-07T12:54:32.117Z,67.50
2022-10-07T12:56:58.887Z,69.20
2022-10-07T12:59:44.263Z,69.40
2022-10-07T13:02:17.370Z,70.20
2022-10-07T13:04:58.015Z,73.30
2022-10-07T13:07:30.727Z,75.00
2022-10-07T13:10:12.887Z,78.10
2022-10-07T13:12:46.394Z,78.30
2022-10-07T13:15:19.489Z,80.50
2022-10-07T13:18:08.611Z,82.60
2022-10-07T13:20:41.880Z,84.90
2022-10-07T13:23:16.815Z,83.60
2022-10-07T13:25:45.323Z,84.60
2022-10-07T13:28:16.526Z,86.10
2022-10-07T13:30:44.013Z,84.20
2022-10-07T13:33:15.601Z,81.90
2022-10-07T13:35:42.172Z,79.40
2022-10-07T13:38:25.480Z,78.80
2022-10-07T13:40:53.892Z,77.60
2022-10-07T13:43:21.251Z,75.90
2022-10-07T13:45:47.879Z,75.80
2022-10-07T13:48:20.824Z,77.20
2022-10-07T13:50:50.265Z,78.20
2022-10-07T13:53:21.678Z,78.70
2022-10-07T13:55:48.373Z,80.10
2022-10-07T13:58:15.285Z,79.90
2022-10-07T14:00:44.253Z,82.00
2022-10-07T14:03:17.693Z,82.70
2022-10-07T14:05:49.060Z,83.10
2022-10-07T14:08:22.619Z,84.00
2022-10-07T14:10:58.612Z,84.00
2022-10-07T14:13:28.895Z,84.30
2022-10-07T14:15:56.311Z,83.90
2022-10-07T14:18:23.277Z,84.50
2022-10-07T14:20:54.499Z,84.00
2022-10-07T14:23:21.609Z,85.30
2022-10-07T14:25:48.171Z,86.80
2022-10-07T14:28:19.016Z,87.10
2022-10-07T14:31:26.022Z,87.10
2022-10-07T14:34:17.587Z,85.90
2022-10-07T14:37:01.362Z,85.20
2022-10-07T14:39:50.139Z,84.40
2022-10-07T14:42:20.755Z,83.30
2022-10-07T14:44:47.870Z,84.30
2022-10-07T14:47:15.738Z,86.50
2022-10-07T14:49:42.432Z,87.20
2022-10-07T14:52:17.816Z,87.50
2022-10-07T14:54:44.448Z,88.80
2022-10-07T14:57:11.180Z,89.50
2022-10-07T14:59:37.884Z,90.50
2022-10-07T15:02:04.621Z,90.40
2022-10-07T15:04:31.315Z,90.50
2022-10-07T15:06:58.094Z,90.80
2022-10-07T15:09:24.868Z,91.20
2022-10-07T15:11:51.492Z,91.40
2022-10-07T15:14:18.060Z,91.70
2022-10-07T15:16:44.869Z,91.50
2022-10-07T15:19:11.472Z,92.20
2022-10-07T15:21:38.136Z,92.00
2022-10-07T15:24:04.780Z,92.30
2022-10-07T15:26:31.474Z,92.60
2022-10-07T15:28:58.690Z,92.70
2022-10-07T15:31:26.850Z,93.00
2022-10-07T15:34:02.951Z,93.10
2022-10-07T15:36:29.607Z,93.30
2022-10-07T15:38:58.776Z,93.30
2022-10-07T15:41:36.218Z,93.50
2022-10-07T15:44:07.324Z,93.90
2022-10-07T15:46:34.912Z,94.20
2022-10-07T15:49:01.627Z,94.50
2022-10-07T15:51:29.397Z,94.80
2022-10-07T15:53:56.089Z,95.10
2022-10-07T15:56:22.757Z,95.40
2022-10-07T15:58:49.376Z,95.60
2022-10-07T16:01:16.027Z,96.00
2022-10-07T16:03:44.523Z,96.30
2022-10-07T16:06:14.126Z,96.70
2022-10-07T16:08:41.081Z,97.10
2022-10-07T16:11:08.923Z,97.30
2022-10-07T16:13:39.302Z,97.80
2022-10-07T16:16:07.389Z,98.00
2022-10-07T16:18:36.792Z,98.40
2022-10-07T16:21:04.365Z,98.70
2022-10-07T16:23:30.975Z,99.10
2022-10-07T16:26:02.308Z,99.30
2022-10-07T16:28:47.461Z,99.60
2022-10-07T16:31:14.055Z,99.90
2022-10-07T16:33:41.501Z,99.90
2022-10-07T16:36:12.199Z,99.90
2022-10-07T16:38:40.290Z,99.90
2022-10-07T16:41:07.053Z,99.90
2022-10-07T16:43:35.857Z,99.90
2022-10-07T16:46:06.425Z,99.90
2022-10-07T16:48:37.644Z,99.90
2022-10-07T16:51:05.493Z,99.90
2022-10-07T16:53:32.057Z,99.90
2022-10-07T16:56:01.137Z,99.90
2022-10-07T16:58:27.764Z,99.90
2022-10-07T17:01:00.238Z,99.90
2022-10-07T17:03:26.984Z,99.90
2022-10-07T17:05:59.251Z,99.90
2022-10-07T17:08:25.903Z,99.90
2022-10-07T17:10:52.537Z,99.90
2022-10-07T17:13:19.119Z,99.90
2022-10-07T17:15:49.164Z,99.90
2022-10-07T17:18:19.193Z,99.90
2022-10-07T17:20:49.524Z,99.90
2022-10-07T17:23:16.842Z,99.90
2022-10-07T17:25:46.240Z,99.90
2022-10-07T17:28:13.711Z,99.90
2022-10-07T17:30:40.500Z,99.90
2022-10-07T17:33:07.624Z,99.90
2022-10-07T17:35:34.670Z,99.90
2022-10-07T17:38:02.181Z,99.90
2022-10-07T17:40:29.744Z,99.90
2022-10-07T17:42:58.792Z,99.90
2022-10-07T17:45:25.515Z,99.90
2022-10-07T17:47:54.395Z,99.90
2022-10-07T17:50:20.998Z,99.90
2022-10-07T17:52:47.653Z,99.90
2022-10-07T17:55:14.261Z,99.90
2022-10-07T17:57:40.823Z,99.90
2022-10-07T18:00:08.085Z,99.90
2022-10-07T18:02:35.096Z,99.90
2022-10-07T18:05:01.746Z,99.90
2022-10-07T18:07:29.166Z,99.90
2022-10-07T18:09:55.746Z,99.90
2022-10-07T18:12:40.894Z,99.90
2022-10-07T18:15:20.949Z,99.90
2022-10-07T18:17:50.677Z,99.90
2022-10-07T18:20:21.616Z,99.90
2022-10-07T18:22:53.640Z,99.90
2022-10-07T18:25:20.202Z,99.90
2022-10-07T18:27:47.222Z,99.90
2022-10-07T18:30:14.112Z,99.90
2022-10-07T18:32:40.805Z,99.90
2022-10-07T18:35:07.583Z,99.90
2022-10-07T18:37:34.368Z,99.90
2022-10-07T18:40:00.936Z,99.90
2022-10-07T18:42:27.530Z,99.90
2022-10-07T18:44:54.952Z,99.90
2022-10-07T18:47:21.667Z,99.90
2022-10-07T18:49:48.289Z,99.90
2022-10-07T18:52:14.869Z,99.90
2022-10-07T18:54:41.516Z,99.90
2022-10-07T18:57:08.088Z,99.90
2022-10-07T18:59:34.643Z,99.90
2022-10-07T19:02:01.401Z,99.90
2022-10-07T19:04:29.095Z,99.90
2022-10-07T19:06:55.747Z,99.90
2022-10-07T19:09:22.984Z,99.90
2022-10-07T19:11:49.749Z,99.90
2022-10-07T19:14:16.315Z,99.90
2022-10-07T19:16:49.057Z,99.90
2022-10-07T19:19:20.088Z,99.90
2022-10-07T19:21:55.758Z,99.90
2022-10-07T19:24:45.849Z,99.90
2022-10-07T19:27:12.524Z,99.90
2022-10-07T19:29:39.382Z,99.90
2022-10-07T19:32:08.639Z,99.90
2022-10-07T19:34:35.556Z,99.90
2022-10-07T19:37:02.206Z,99.90
2022-10-07T19:39:28.768Z,99.90
2022-10-07T19:41:57.356Z,99.90
2022-10-07T19:44:24.207Z,99.90
2022-10-07T19:46:51.432Z,99.90
2022-10-07T19:49:18.349Z,99.90
2022-10-07T19:51:45.498Z,99.90
2022-10-07T19:54:13.170Z,99.90
2022-10-07T19:56:40.496Z,99.90
2022-10-07T19:59:08.746Z,99.90
2022-10-07T20:01:37.267Z,99.90
2022-10-07T20:04:05.425Z,99.90
2022-10-07T20:06:32.384Z,99.90
2022-10-07T20:08:59.178Z,99.90
2022-10-07T20:11:27.655Z,99.90
2022-10-07T20:13:54.407Z,99.90
2022-10-07T20:16:21.913Z,99.90
2022-10-07T20:18:49.877Z,99.90
2022-10-07T20:21:17.889Z,99.90
2022-10-07T20:23:45.840Z,99.90
2022-10-07T20:26:18.916Z,99.90
2022-10-07T20:28:46.131Z,99.90
2022-10-07T20:31:13.867Z,99.90
2022-10-07T20:33:44.604Z,99.90
2022-10-07T20:36:13.128Z,99.90
2022-10-07T20:38:58.397Z,99.90
2022-10-07T20:41:43.963Z,99.90
2022-10-07T20:44:11.474Z,99.90
2022-10-07T20:46:38.411Z,99.90
2022-10-07T20:49:21.079Z,99.90
2022-10-07T20:51:55.308Z,99.90
2022-10-07T20:54:22.721Z,99.90
2022-10-07T20:56:50.999Z,99.90
2022-10-07T20:59:17.897Z,99.90
2022-10-07T21:01:44.858Z,99.90
2022-10-07T21:04:12.788Z,99.90
2022-10-07T21:06:39.629Z,99.90
2022-10-07T21:09:06.941Z,99.90
2022-10-07T21:11:33.609Z,99.90
2022-10-07T21:14:00.171Z,99.90
2022-10-07T21:16:27.650Z,99.90
2022-10-07T21:18:54.561Z,99.90
2022-10-07T21:21:21.767Z,99.90
2022-10-07T21:23:49.162Z,99.90
2022-10-07T21:26:16.388Z,99.90
2022-10-07T21:28:43.068Z,99.90
2022-10-07T21:31:11.999Z,99.90
2022-10-07T21:33:39.804Z,99.90
2022-10-07T21:36:07.478Z,99.90
2022-10-07T21:38:34.582Z,99.90
2022-10-07T21:41:11.939Z,99.90
2022-10-07T21:43:39.029Z,99.90
2022-10-07T21:46:05.677Z,99.90
2022-10-07T21:48:32.357Z,99.90
2022-10-07T21:50:59.793Z,99.90
2022-10-07T21:53:26.756Z,99.90
2022-10-07T21:55:53.595Z,99.90
2022-10-07T21:58:21.388Z,99.90
2022-10-07T22:00:48.069Z,99.90
2022-10-07T22:03:14.878Z,99.90
2022-10-07T22:05:41.760Z,99.90
2022-10-07T22:08:34.086Z,99.90
2022-10-07T22:11:09.520Z,99.90
2022-10-07T22:13:37.720Z,99.90
2022-10-07T22:16:14.934Z,99.90
2022-10-07T22:18:51.744Z,99.90
2022-10-07T22:21:23.086Z,99.90
2022-10-07T22:23:53.965Z,99.90
2022-10-07T22:26:21.992Z,99.90
2022-10-07T22:28:49.696Z,99.90
2022-10-07T22:31:16.653Z,99.90
2022-10-07T22:33:43.902Z,99.90
2022-10-07T22:36:11.661Z,99.90
2022-10-07T22:38:40.794Z,99.90
2022-10-07T22:41:08.573Z,99.90
2022-10-07T22:43:36.412Z,99.90
2022-10-07T22:46:03.070Z,99.90
2022-10-07T22:48:31.389Z,99.90
2022-10-07T22:51:08.388Z,99.90
2022-10-07T22:53:35.949Z,99.90
2022-10-07T22:56:07.074Z,99.90
2022-10-07T22:58:34.332Z,99.90
2022-10-07T23:01:04.429Z,99.90
2022-10-07T23:03:31.162Z,99.90
2022-10-07T23:06:00.645Z,99.90
2022-10-07T23:08:27.380Z,99.90
2022-10-07T23:10:57.479Z,99.90
2022-10-07T23:13:26.947Z,99.90
2022-10-07T23:15:56.715Z,99.90
2022-10-07T23:18:23.332Z,99.90
2022-10-07T23:20:57.300Z,99.90
2022-10-07T23:23:25.308Z,99.90
2022-10-07T23:25:52.102Z,99.90
2022-10-07T23:28:19.455Z,99.90
2022-10-07T23:30:46.160Z,99.90
2022-10-07T23:33:13.617Z,99.90
2022-10-07T23:35:40.769Z,99.90
2022-10-07T23:38:07.554Z,99.90
2022-10-07T23:40:34.113Z,99.90
2022-10-07T23:43:00.716Z,99.90
2022-10-07T23:45:27.536Z,99.90
2022-10-07T23:47:54.264Z,99.90
2022-10-07T23:50:20.827Z,99.90
2022-10-07T23:52:47.906Z,99.90
2022-10-07T23:55:14.731Z,99.90
2022-10-07T23:57:41.382Z,99.90
